createdAt,value
2023-05-06T00:00:41.033Z,1008.65
2023-05-06T00:01:40.980Z,1008.62
2023-05-06T00:02:41.021Z,1008.66
2023-05-06T00:03:41.047Z,1008.62
2023-05-06T00:05:01.881Z,1008.65
2023-05-06T00:05:40.855Z,1008.60
2023-05-06T00:06:40.822Z,1008.61
2023-05-06T00:07:40.777Z,1008.57
2023-05-06T00:08:40.749Z,1008.58
2023-05-06T00:09:40.718Z,1008.61
2023-05-06T00:11:01.681Z,1008.56
2023-05-06T00:11:40.658Z,1008.54
2023-05-06T00:12:40.756Z,1008.54
2023-05-06T00:13:40.610Z,1008.56
2023-05-06T00:14:40.547Z,1008.49
2023-05-06T00:15:40.509Z,1008.51
2023-05-06T00:17:01.473Z,1008.52
2023-05-06T00:17:40.518Z,1008.52
2023-05-06T00:18:40.414Z,1008.48
2023-05-06T00:19:40.400Z,1008.50
2023-05-06T00:20:40.356Z,1008.44
2023-05-06T00:21:40.306Z,1008.43
2023-05-06T00:23:01.272Z,1008.41
2023-05-06T00:23:40.246Z,1008.43
2023-05-06T00:24:40.208Z,1008.39
2023-05-06T00:25:40.214Z,1008.41
2023-05-06T00:26:40.141Z,1008.38
2023-05-06T00:27:40.106Z,1008.42
2023-05-06T00:29:01.156Z,1008.42
2023-05-06T00:29:40.041Z,1008.40
2023-05-06T00:30:40.006Z,1008.40
2023-05-06T00:31:39.986Z,1008.36
2023-05-06T00:32:39.953Z,1008.40
2023-05-06T00:33:39.917Z,1008.38
2023-05-06T00:35:00.870Z,1008.36
2023-05-06T00:35:39.838Z,1008.37
2023-05-06T00:36:39.805Z,1008.36
2023-05-06T00:37:39.775Z,1008.36
2023-05-06T00:38:39.735Z,1008.35
2023-05-06T00:39:39.705Z,1008.35
2023-05-06T00:41:00.669Z,1008.34
2023-05-06T00:41:39.638Z,1008.35
2023-05-06T00:42:39.609Z,1008.32
2023-05-06T00:43:39.567Z,1008.35
2023-05-06T00:44:39.739Z,1008.35
2023-05-06T00:45:39.515Z,1008.34
2023-05-06T00:47:00.465Z,1008.37
2023-05-06T00:47:39.488Z,1008.36
2023-05-06T00:48:39.395Z,1008.38
2023-05-06T00:49:39.370Z,1008.41
2023-05-06T00:50:39.332Z,1008.39
2023-05-06T00:51:39.296Z,1008.43
2023-05-06T00:53:00.265Z,1008.46
2023-05-06T00:53:39.231Z,1008.43
2023-05-06T00:54:39.196Z,1008.41
2023-05-06T00:55:39.161Z,1008.43
2023-05-06T00:56:39.140Z,1008.44
2023-05-06T00:57:39.096Z,1008.44
2023-05-06T00:59:00.089Z,1008.44
2023-05-06T00:59:39.029Z,1008.46
2023-05-06T01:00:39.075Z,1008.41
2023-05-06T01:01:39.006Z,1008.41
2023-05-06T01:02:47.031Z,1008.44
2023-05-06T01:03:38.947Z,1008.44
2023-05-06T01:04:59.897Z,1008.45
2023-05-06T01:05:38.822Z,1008.40
2023-05-06T01:06:38.796Z,1008.42
2023-05-06T01:07:38.752Z,1008.41
2023-05-06T01:08:38.720Z,1008.42
2023-05-06T01:09:38.689Z,1008.41
2023-05-06T01:10:59.651Z,1008.38
2023-05-06T01:11:38.639Z,1008.37
2023-05-06T01:12:38.622Z,1008.40
2023-05-06T01:13:38.565Z,1008.42
2023-05-06T01:14:38.537Z,1008.40
2023-05-06T01:15:38.481Z,1008.37
2023-05-06T01:16:59.575Z,1008.36
2023-05-06T01:17:38.428Z,1008.40
2023-05-06T01:18:38.421Z,1008.43
2023-05-06T01:19:38.349Z,1008.38
2023-05-06T01:20:38.353Z,1008.37
2023-05-06T01:21:38.287Z,1008.39
2023-05-06T01:22:59.261Z,1008.38
2023-05-06T01:23:38.218Z,1008.36
2023-05-06T01:24:38.190Z,1008.34
2023-05-06T01:25:38.142Z,1008.30
2023-05-06T01:26:38.112Z,1008.32
2023-05-06T01:27:38.079Z,1008.37
2023-05-06T01:28:59.040Z,1008.36
2023-05-06T01:29:38.002Z,1008.35
2023-05-06T01:30:37.978Z,1008.36
2023-05-06T01:31:38.029Z,1008.36
2023-05-06T01:32:38.033Z,1008.33
2023-05-06T01:33:37.873Z,1008.32
2023-05-06T01:34:58.835Z,1008.33
2023-05-06T01:35:37.804Z,1008.31
2023-05-06T01:36:37.774Z,1008.34
2023-05-06T01:37:37.737Z,1008.36
2023-05-06T01:38:37.713Z,1008.39
2023-05-06T01:39:37.668Z,1008.34
2023-05-06T01:40:58.629Z,1008.35
2023-05-06T01:41:37.595Z,1008.37
2023-05-06T01:42:37.583Z,1008.38
2023-05-06T01:43:37.531Z,1008.37
2023-05-06T01:44:37.504Z,1008.36
2023-05-06T01:45:37.461Z,1008.35
2023-05-06T01:46:58.426Z,1008.37
2023-05-06T01:47:37.427Z,1008.39
2023-05-06T01:48:37.512Z,1008.42
2023-05-06T01:49:37.328Z,1008.40
2023-05-06T01:50:37.291Z,1008.39
2023-05-06T01:51:37.255Z,1008.43
2023-05-06T01:52:58.218Z,1008.43
2023-05-06T01:53:37.183Z,1008.42
2023-05-06T01:54:37.156Z,1008.41
2023-05-06T01:55:37.122Z,1008.43
2023-05-06T01:56:37.084Z,1008.46
2023-05-06T01:57:37.049Z,1008.41
2023-05-06T01:58:59.288Z,1008.46
2023-05-06T01:59:36.980Z,1008.44
2023-05-06T02:00:36.950Z,1008.43
2023-05-06T02:01:37.003Z,1008.43
2023-05-06T02:02:37.015Z,1008.46
2023-05-06T02:03:36.902Z,1008.45
2023-05-06T02:04:57.880Z,1008.44
2023-05-06T02:05:36.776Z,1008.43
2023-05-06T02:06:36.767Z,1008.43
2023-05-06T02:07:36.707Z,1008.43
2023-05-06T02:08:36.678Z,1008.44
2023-05-06T02:09:36.637Z,1008.44
2023-05-06T02:10:57.606Z,1008.47
2023-05-06T02:11:36.577Z,1008.43
2023-05-06T02:12:36.550Z,1008.46
2023-05-06T02:13:36.513Z,1008.50
2023-05-06T02:14:36.478Z,1008.48
2023-05-06T02:15:36.436Z,1008.51
2023-05-06T02:16:57.398Z,1008.47
2023-05-06T02:17:36.365Z,1008.50
2023-05-06T02:18:36.360Z,1008.49
2023-05-06T02:19:36.299Z,1008.48
2023-05-06T02:20:36.282Z,1008.49
2023-05-06T02:21:36.224Z,1008.48
2023-05-06T02:22:57.193Z,1008.46
2023-05-06T02:23:36.153Z,1008.46
2023-05-06T02:24:36.127Z,1008.47
2023-05-06T02:25:36.085Z,1008.44
2023-05-06T02:26:36.058Z,1008.43
2023-05-06T02:27:36.033Z,1008.39
2023-05-06T02:28:56.984Z,1008.39
2023-05-06T02:29:35.951Z,1008.39
2023-05-06T02:30:35.929Z,1008.39
2023-05-06T02:31:35.936Z,1008.42
2023-05-06T02:32:35.891Z,1008.39
2023-05-06T02:33:35.851Z,1008.32
2023-05-06T02:34:56.777Z,1008.38
2023-05-06T02:35:35.764Z,1008.34
2023-05-06T02:36:35.763Z,1008.34
2023-05-06T02:37:35.680Z,1008.33
2023-05-06T02:38:35.640Z,1008.31
2023-05-06T02:39:35.602Z,1008.32
2023-05-06T02:40:56.570Z,1008.34
2023-05-06T02:41:35.532Z,1008.34
2023-05-06T02:42:35.551Z,1008.30
2023-05-06T02:43:35.496Z,1008.31
2023-05-06T02:44:35.435Z,1008.32
2023-05-06T02:45:35.428Z,1008.29
2023-05-06T02:46:56.368Z,1008.27
2023-05-06T02:47:35.340Z,1008.26
2023-05-06T02:48:35.294Z,1008.21
2023-05-06T02:49:35.286Z,1008.23
2023-05-06T02:50:35.225Z,1008.26
2023-05-06T02:51:35.233Z,1008.25
2023-05-06T02:52:56.153Z,1008.21
2023-05-06T02:53:35.117Z,1008.23
2023-05-06T02:54:35.083Z,1008.25
2023-05-06T02:55:35.045Z,1008.27
2023-05-06T02:56:35.017Z,1008.29
2023-05-06T02:57:34.975Z,1008.27
2023-05-06T02:58:55.946Z,1008.28
2023-05-06T02:59:34.904Z,1008.25
2023-05-06T03:00:34.882Z,1008.30
2023-05-06T03:01:34.873Z,1008.26
2023-05-06T03:02:34.821Z,1008.25
2023-05-06T03:03:34.776Z,1008.25
2023-05-06T03:04:55.738Z,1008.27
2023-05-06T03:05:34.701Z,1008.24
2023-05-06T03:06:34.671Z,1008.24
2023-05-06T03:07:34.634Z,1008.23
2023-05-06T03:08:34.670Z,1008.24
2023-05-06T03:09:34.565Z,1008.23
2023-05-06T03:10:55.528Z,1008.23
2023-05-06T03:11:34.491Z,1008.20
2023-05-06T03:12:34.501Z,1008.21
2023-05-06T03:13:34.425Z,1008.21
2023-05-06T03:14:34.391Z,1008.21
2023-05-06T03:15:34.351Z,1008.18
2023-05-06T03:16:55.384Z,1008.16
2023-05-06T03:17:34.370Z,1008.20
2023-05-06T03:18:34.255Z,1008.16
2023-05-06T03:19:34.229Z,1008.18
2023-05-06T03:20:34.179Z,1008.17
2023-05-06T03:21:34.171Z,1008.16
2023-05-06T03:22:55.108Z,1008.15
2023-05-06T03:23:34.093Z,1008.17
2023-05-06T03:24:34.047Z,1008.17
2023-05-06T03:25:34.010Z,1008.15
2023-05-06T03:26:33.969Z,1008.15
2023-05-06T03:27:33.945Z,1008.16
2023-05-06T03:28:54.898Z,1008.21
2023-05-06T03:29:33.862Z,1008.17
2023-05-06T03:30:33.857Z,1008.19
2023-05-06T03:31:33.826Z,1008.19
2023-05-06T03:32:33.779Z,1008.21
2023-05-06T03:33:33.743Z,1008.21
2023-05-06T03:34:54.692Z,1008.22
2023-05-06T03:35:33.659Z,1008.20
2023-05-06T03:36:33.620Z,1008.21
2023-05-06T03:37:33.593Z,1008.21
2023-05-06T03:38:33.549Z,1008.25
2023-05-06T03:39:33.525Z,1008.23
2023-05-06T03:40:54.483Z,1008.24
2023-05-06T03:41:33.458Z,1008.25
2023-05-06T03:42:33.411Z,1008.23
2023-05-06T03:43:33.381Z,1008.18
2023-05-06T03:44:33.339Z,1008.22
2023-05-06T03:45:33.313Z,1008.22
2023-05-06T03:46:54.277Z,1008.20
2023-05-06T03:47:33.242Z,1008.23
2023-05-06T03:48:33.203Z,1008.21
2023-05-06T03:49:33.169Z,1008.21
2023-05-06T03:50:33.138Z,1008.21
2023-05-06T03:51:33.097Z,1008.21
2023-05-06T03:52:54.070Z,1008.18
2023-05-06T03:53:33.021Z,1008.21
2023-05-06T03:54:32.990Z,1008.18
2023-05-06T03:55:32.967Z,1008.22
2023-05-06T03:56:32.933Z,1008.21
2023-05-06T03:57:32.885Z,1008.23
2023-05-06T03:58:53.852Z,1008.24
2023-05-06T03:59:32.839Z,1008.21
2023-05-06T04:00:32.782Z,1008.22
2023-05-06T04:01:32.745Z,1008.23
2023-05-06T04:02:32.775Z,1008.22
2023-05-06T04:03:32.784Z,1008.25
2023-05-06T04:04:53.631Z,1008.26
2023-05-06T04:05:32.611Z,1008.25
2023-05-06T04:06:32.583Z,1008.26
2023-05-06T04:07:32.534Z,1008.21
2023-05-06T04:08:32.505Z,1008.20
2023-05-06T04:09:32.474Z,1008.21
2023-05-06T04:10:53.426Z,1008.23
2023-05-06T04:11:32.393Z,1008.20
2023-05-06T04:12:32.451Z,1008.20
2023-05-06T04:13:32.326Z,1008.21
2023-05-06T04:14:32.312Z,1008.21
2023-05-06T04:15:32.255Z,1008.21
2023-05-06T04:16:53.218Z,1008.23
2023-05-06T04:17:32.195Z,1008.26
2023-05-06T04:18:32.152Z,1008.28
2023-05-06T04:19:32.123Z,1008.29
2023-05-06T04:20:32.081Z,1008.30
2023-05-06T04:21:32.040Z,1008.32
2023-05-06T04:22:53.005Z,1008.37
2023-05-06T04:23:31.974Z,1008.35
2023-05-06T04:24:31.941Z,1008.37
2023-05-06T04:25:31.907Z,1008.38
2023-05-06T04:26:31.870Z,1008.38
2023-05-06T04:27:31.838Z,1008.35
2023-05-06T04:28:52.793Z,1008.39
2023-05-06T04:29:31.763Z,1008.42
2023-05-06T04:30:31.730Z,1008.44
2023-05-06T04:31:31.720Z,1008.47
2023-05-06T04:32:31.670Z,1008.46
2023-05-06T04:33:31.622Z,1008.45
2023-05-06T04:34:52.588Z,1008.45
2023-05-06T04:35:31.558Z,1008.48
2023-05-06T04:36:31.520Z,1008.48
2023-05-06T04:37:31.509Z,1008.50
2023-05-06T04:38:31.458Z,1008.46
2023-05-06T04:39:31.410Z,1008.49
2023-05-06T04:40:52.378Z,1008.50
2023-05-06T04:41:31.368Z,1008.48
2023-05-06T04:42:31.309Z,1008.54
2023-05-06T04:43:31.273Z,1008.50
2023-05-06T04:44:31.315Z,1008.56
2023-05-06T04:45:31.227Z,1008.57
2023-05-06T04:46:52.177Z,1008.55
2023-05-06T04:47:31.149Z,1008.58
2023-05-06T04:48:31.098Z,1008.57
2023-05-06T04:49:31.067Z,1008.58
2023-05-06T04:50:31.034Z,1008.60
2023-05-06T04:51:30.999Z,1008.56
2023-05-06T04:52:51.962Z,1008.61
2023-05-06T04:53:30.928Z,1008.58
2023-05-06T04:54:30.892Z,1008.60
2023-05-06T04:55:30.856Z,1008.57
2023-05-06T04:56:30.824Z,1008.54
2023-05-06T04:57:30.788Z,1008.59
2023-05-06T04:58:51.753Z,1008.54
2023-05-06T04:59:30.718Z,1008.59
2023-05-06T05:00:30.762Z,1008.57
2023-05-06T05:01:30.678Z,1008.60
2023-05-06T05:02:30.681Z,1008.59
2023-05-06T05:03:30.664Z,1008.66
2023-05-06T05:04:51.534Z,1008.62
2023-05-06T05:05:30.512Z,1008.63
2023-05-06T05:06:30.476Z,1008.64
2023-05-06T05:07:30.439Z,1008.65
2023-05-06T05:08:30.416Z,1008.64
2023-05-06T05:09:30.365Z,1008.68
2023-05-06T05:10:51.325Z,1008.70
2023-05-06T05:11:30.302Z,1008.72
2023-05-06T05:12:30.255Z,1008.71
2023-05-06T05:13:30.226Z,1008.67
2023-05-06T05:14:30.197Z,1008.66
2023-05-06T05:15:30.156Z,1008.69
2023-05-06T05:16:51.207Z,1008.68
2023-05-06T05:17:30.137Z,1008.72
2023-05-06T05:18:30.056Z,1008.72
2023-05-06T05:19:30.024Z,1008.72
2023-05-06T05:20:29.987Z,1008.76
2023-05-06T05:21:29.945Z,1008.74
2023-05-06T05:22:50.916Z,1008.75
2023-05-06T05:23:29.901Z,1008.76
2023-05-06T05:24:29.839Z,1008.74
2023-05-06T05:25:29.808Z,1008.78
2023-05-06T05:26:29.771Z,1008.78
2023-05-06T05:27:29.734Z,1008.79
2023-05-06T05:28:50.697Z,1008.84
2023-05-06T05:29:29.670Z,1008.82
2023-05-06T05:30:29.636Z,1008.82
2023-05-06T05:31:29.614Z,1008.83
2023-05-06T05:32:29.602Z,1008.80
2023-05-06T05:33:29.555Z,1008.82
2023-05-06T05:34:50.487Z,1008.85
2023-05-06T05:35:29.457Z,1008.85
2023-05-06T05:36:29.424Z,1008.85
2023-05-06T05:37:29.389Z,1008.89
2023-05-06T05:38:29.360Z,1008.88
2023-05-06T05:39:29.319Z,1008.91
2023-05-06T05:40:50.311Z,1008.90
2023-05-06T05:41:29.275Z,1008.88
2023-05-06T05:42:29.209Z,1008.90
2023-05-06T05:43:29.178Z,1008.92
2023-05-06T05:44:29.143Z,1008.90
2023-05-06T05:45:29.115Z,1008.92
2023-05-06T05:46:50.098Z,1008.95
2023-05-06T05:47:29.064Z,1008.95
2023-05-06T05:48:29.076Z,1008.97
2023-05-06T05:49:28.969Z,1008.99
2023-05-06T05:50:28.938Z,1008.96
2023-05-06T05:51:28.902Z,1008.98
2023-05-06T05:52:49.887Z,1009.02
2023-05-06T05:53:28.828Z,1009.04
2023-05-06T05:54:28.796Z,1009.03
2023-05-06T05:55:28.766Z,1009.02
2023-05-06T05:56:28.722Z,1009.01
2023-05-06T05:57:28.706Z,1009.00
2023-05-06T05:58:49.652Z,1008.98
2023-05-06T05:59:28.721Z,1008.96
2023-05-06T06:00:28.605Z,1008.99
2023-05-06T06:01:28.589Z,1008.97
2023-05-06T06:02:28.608Z,1008.99
2023-05-06T06:03:28.590Z,1008.96
2023-05-06T06:04:49.727Z,1009.00
2023-05-06T06:05:28.435Z,1008.97
2023-05-06T06:06:28.381Z,1008.95
2023-05-06T06:07:28.355Z,1008.96
2023-05-06T06:08:28.318Z,1008.98
2023-05-06T06:09:28.277Z,1008.92
2023-05-06T06:10:49.233Z,1008.93
2023-05-06T06:11:28.212Z,1008.90
2023-05-06T06:12:28.214Z,1008.91
2023-05-06T06:13:29.026Z,1008.91
2023-05-06T06:14:28.105Z,1008.90
2023-05-06T06:15:28.069Z,1008.95
2023-05-06T06:16:49.026Z,1008.94
2023-05-06T06:17:28.019Z,1008.90
2023-05-06T06:18:27.973Z,1008.93
2023-05-06T06:19:27.933Z,1008.96
2023-05-06T06:20:28.039Z,1008.94
2023-05-06T06:21:27.870Z,1008.95
2023-05-06T06:22:48.823Z,1008.95
2023-05-06T06:23:27.814Z,1008.97
2023-05-06T06:24:27.757Z,1008.98
2023-05-06T06:25:27.738Z,1008.95
2023-05-06T06:26:27.690Z,1008.96
2023-05-06T06:27:27.656Z,1008.99
2023-05-06T06:28:48.616Z,1008.97
2023-05-06T06:29:27.586Z,1008.98
2023-05-06T06:30:27.555Z,1008.95
2023-05-06T06:31:27.552Z,1009.03
2023-05-06T06:32:27.514Z,1008.99
2023-05-06T06:33:27.453Z,1008.99
2023-05-06T06:34:48.416Z,1008.99
2023-05-06T06:35:27.384Z,1009.00
2023-05-06T06:36:27.464Z,1009.02
2023-05-06T06:37:27.312Z,1009.03
2023-05-06T06:38:27.279Z,1009.04
2023-05-06T06:39:27.250Z,1009.05
2023-05-06T06:40:48.212Z,1009.05
2023-05-06T06:41:27.185Z,1009.06
2023-05-06T06:42:27.340Z,1009.04
2023-05-06T06:43:27.111Z,1009.06
2023-05-06T06:44:27.073Z,1009.07
2023-05-06T06:45:27.078Z,1009.08
2023-05-06T06:46:48.006Z,1009.06
2023-05-06T06:47:26.975Z,1009.07
2023-05-06T06:48:26.948Z,1009.10
2023-05-06T06:49:26.908Z,1009.10
2023-05-06T06:50:26.880Z,1009.10
2023-05-06T06:51:26.850Z,1009.07
2023-05-06T06:52:47.880Z,1009.08
2023-05-06T06:53:26.773Z,1009.10
2023-05-06T06:54:26.738Z,1009.07
2023-05-06T06:55:26.710Z,1009.08
2023-05-06T06:56:26.663Z,1009.10
2023-05-06T06:57:26.650Z,1009.10
2023-05-06T06:58:47.599Z,1009.10
2023-05-06T06:59:26.571Z,1009.10
2023-05-06T07:00:26.564Z,1009.10
2023-05-06T07:01:26.560Z,1009.13
2023-05-06T07:02:26.511Z,1009.11
2023-05-06T07:03:26.440Z,1009.14
2023-05-06T07:04:47.396Z,1009.12
2023-05-06T07:05:26.370Z,1009.10
2023-05-06T07:06:26.333Z,1009.12
2023-05-06T07:07:26.301Z,1009.12
2023-05-06T07:08:26.337Z,1009.11
2023-05-06T07:09:26.248Z,1009.08
2023-05-06T07:10:47.204Z,1009.08
2023-05-06T07:11:26.168Z,1009.11
2023-05-06T07:12:26.131Z,1009.13
2023-05-06T07:13:26.113Z,1009.14
2023-05-06T07:14:26.068Z,1009.14
2023-05-06T07:15:26.066Z,1009.14
2023-05-06T07:16:48.761Z,1009.13
2023-05-06T07:17:26.082Z,1009.12
2023-05-06T07:18:25.935Z,1009.11
2023-05-06T07:19:25.899Z,1009.13
2023-05-06T07:20:25.872Z,1009.15
2023-05-06T07:21:25.843Z,1009.11
2023-05-06T07:22:46.795Z,1009.15
2023-05-06T07:23:25.784Z,1009.15
2023-05-06T07:24:25.738Z,1009.18
2023-05-06T07:25:25.693Z,1009.19
2023-05-06T07:26:25.667Z,1009.21
2023-05-06T07:27:25.649Z,1009.19
2023-05-06T07:28:46.596Z,1009.18
2023-05-06T07:29:25.570Z,1009.20
2023-05-06T07:30:25.547Z,1009.18
2023-05-06T07:31:25.514Z,1009.18
2023-05-06T07:32:25.481Z,1009.20
2023-05-06T07:33:25.447Z,1009.18
2023-05-06T07:34:46.397Z,1009.20
2023-05-06T07:35:25.378Z,1009.19
2023-05-06T07:36:25.336Z,1009.20
2023-05-06T07:37:25.307Z,1009.22
2023-05-06T07:38:25.266Z,1009.23
2023-05-06T07:39:25.247Z,1009.23
2023-05-06T07:40:46.276Z,1009.21
2023-05-06T07:41:25.172Z,1009.22
2023-05-06T07:42:25.175Z,1009.23
2023-05-06T07:43:25.112Z,1009.18
2023-05-06T07:44:25.072Z,1009.22
2023-05-06T07:45:25.034Z,1009.25
2023-05-06T07:46:46.051Z,1009.20
2023-05-06T07:47:25.083Z,1009.23
2023-05-06T07:48:24.947Z,1009.22
2023-05-06T07:49:24.906Z,1009.22
2023-05-06T07:50:24.872Z,1009.24
2023-05-06T07:51:24.841Z,1009.23
2023-05-06T07:52:45.820Z,1009.24
2023-05-06T07:53:24.783Z,1009.25
2023-05-06T07:54:24.739Z,1009.27
2023-05-06T07:55:24.734Z,1009.25
2023-05-06T07:56:24.680Z,1009.30
2023-05-06T07:57:24.643Z,1009.27
2023-05-06T07:58:45.622Z,1009.29
2023-05-06T07:59:24.583Z,1009.26
2023-05-06T08:00:24.544Z,1009.25
2023-05-06T08:01:24.527Z,1009.24
2023-05-06T08:02:24.583Z,1009.26
2023-05-06T08:03:24.523Z,1009.30
2023-05-06T08:04:45.449Z,1009.27
2023-05-06T08:05:24.385Z,1009.28
2023-05-06T08:06:24.353Z,1009.28
2023-05-06T08:07:24.325Z,1009.27
2023-05-06T08:08:24.284Z,1009.28
2023-05-06T08:09:24.251Z,1009.31
2023-05-06T08:10:45.225Z,1009.34
2023-05-06T08:11:24.197Z,1009.34
2023-05-06T08:12:24.237Z,1009.33
2023-05-06T08:13:24.165Z,1009.32
2023-05-06T08:14:24.100Z,1009.37
2023-05-06T08:15:24.055Z,1009.35
2023-05-06T08:16:45.221Z,1009.41
2023-05-06T08:17:24.028Z,1009.36
2023-05-06T08:18:24.036Z,1009.41
2023-05-06T08:19:23.934Z,1009.43
2023-05-06T08:20:23.898Z,1009.40
2023-05-06T08:21:23.866Z,1009.42
2023-05-06T08:22:44.833Z,1009.39
2023-05-06T08:23:23.816Z,1009.40
2023-05-06T08:24:23.766Z,1009.39
2023-05-06T08:25:23.757Z,1009.38
2023-05-06T08:26:23.704Z,1009.37
2023-05-06T08:27:23.676Z,1009.35
2023-05-06T08:28:44.770Z,1009.37
2023-05-06T08:29:23.619Z,1009.34
2023-05-06T08:30:23.575Z,1009.36
2023-05-06T08:31:23.706Z,1009.36
2023-05-06T08:32:23.598Z,1009.34
2023-05-06T08:33:23.486Z,1009.32
2023-05-06T08:34:44.448Z,1009.34
2023-05-06T08:35:23.417Z,1009.30
2023-05-06T08:36:23.382Z,1009.33
2023-05-06T08:37:23.361Z,1009.32
2023-05-06T08:38:23.324Z,1009.28
2023-05-06T08:39:23.288Z,1009.26
2023-05-06T08:40:44.266Z,1009.23
2023-05-06T08:41:23.229Z,1009.24
2023-05-06T08:42:23.208Z,1009.24
2023-05-06T08:43:23.163Z,1009.25
2023-05-06T08:44:23.203Z,1009.21
2023-05-06T08:45:23.103Z,1009.21
2023-05-06T08:46:44.081Z,1009.23
2023-05-06T08:47:23.050Z,1009.23
2023-05-06T08:48:23.000Z,1009.21
2023-05-06T08:49:22.973Z,1009.21
2023-05-06T08:50:22.953Z,1009.24
2023-05-06T08:51:25.456Z,1009.19
2023-05-06T08:52:43.878Z,1009.19
2023-05-06T08:53:22.841Z,1009.15
2023-05-06T08:54:22.807Z,1009.15
2023-05-06T08:55:22.785Z,1009.13
2023-05-06T08:56:22.747Z,1009.16
2023-05-06T08:57:22.715Z,1009.15
2023-05-06T08:58:43.687Z,1009.16
2023-05-06T08:59:22.657Z,1009.17
2023-05-06T09:00:22.695Z,1009.14
2023-05-06T09:01:22.606Z,1009.20
2023-05-06T09:02:22.635Z,1009.13
2023-05-06T09:03:22.582Z,1009.18
2023-05-06T09:04:43.491Z,1009.16
2023-05-06T09:05:22.463Z,1009.13
2023-05-06T09:06:22.427Z,1009.13
2023-05-06T09:07:22.405Z,1009.13
2023-05-06T09:08:22.366Z,1009.14
2023-05-06T09:09:22.344Z,1009.13
2023-05-06T09:10:43.331Z,1009.15
2023-05-06T09:11:22.280Z,1009.16
2023-05-06T09:12:22.293Z,1009.16
2023-05-06T09:13:22.274Z,1009.14
2023-05-06T09:14:22.177Z,1009.15
2023-05-06T09:15:22.148Z,1009.14
2023-05-06T09:16:43.293Z,1009.14
2023-05-06T09:17:22.097Z,1009.11
2023-05-06T09:18:22.060Z,1009.14
2023-05-06T09:19:22.019Z,1009.10
2023-05-06T09:20:21.990Z,1009.11
2023-05-06T09:21:21.962Z,1009.10
2023-05-06T09:22:42.938Z,1009.07
2023-05-06T09:23:21.898Z,1009.10
2023-05-06T09:24:21.886Z,1009.13
2023-05-06T09:25:21.834Z,1009.13
2023-05-06T09:26:21.821Z,1009.12
2023-05-06T09:27:21.773Z,1009.11
2023-05-06T09:28:42.740Z,1009.10
2023-05-06T09:29:21.723Z,1009.07
2023-05-06T09:30:21.680Z,1009.09
2023-05-06T09:31:21.700Z,1009.09
2023-05-06T09:32:21.705Z,1009.05
2023-05-06T09:33:21.592Z,1009.05
2023-05-06T09:34:42.563Z,1009.07
2023-05-06T09:35:21.530Z,1009.03
2023-05-06T09:36:21.517Z,1009.03
2023-05-06T09:37:21.470Z,1009.03
2023-05-06T09:38:21.430Z,1009.02
2023-05-06T09:39:21.410Z,1009.02
2023-05-06T09:40:42.377Z,1009.03
2023-05-06T09:41:21.345Z,1008.99
2023-05-06T09:42:21.306Z,1009.03
2023-05-06T09:43:21.285Z,1008.97
2023-05-06T09:44:21.248Z,1008.96
2023-05-06T09:45:21.218Z,1008.94
2023-05-06T09:46:42.344Z,1008.96
2023-05-06T09:47:21.158Z,1008.97
2023-05-06T09:48:21.162Z,1008.98
2023-05-06T09:49:21.096Z,1008.96
2023-05-06T09:50:21.069Z,1008.97
2023-05-06T09:51:21.032Z,1009.00
2023-05-06T09:52:42.007Z,1008.96
2023-05-06T09:53:20.974Z,1008.97
2023-05-06T09:54:20.948Z,1008.94
2023-05-06T09:55:20.923Z,1008.91
2023-05-06T09:56:20.886Z,1008.90
2023-05-06T09:57:20.859Z,1008.89
2023-05-06T09:58:41.826Z,1008.88
2023-05-06T09:59:20.810Z,1008.87
2023-05-06T10:00:20.765Z,1008.89
2023-05-06T10:01:32.664Z,1008.88
2023-05-06T10:02:20.846Z,1008.85
2023-05-06T10:03:20.789Z,1008.87
2023-05-06T10:04:41.877Z,1008.87
2023-05-06T10:05:20.658Z,1008.84
2023-05-06T10:06:20.584Z,1008.85
2023-05-06T10:07:20.560Z,1008.84
2023-05-06T10:08:20.528Z,1008.88
2023-05-06T10:09:20.494Z,1008.82
2023-05-06T10:10:41.470Z,1008.85
2023-05-06T10:11:20.447Z,1008.84
2023-05-06T10:12:20.462Z,1008.82
2023-05-06T10:13:20.403Z,1008.82
2023-05-06T10:14:20.358Z,1008.82
2023-05-06T10:15:20.320Z,1008.80
2023-05-06T10:16:41.381Z,1008.81
2023-05-06T10:17:20.268Z,1008.82
2023-05-06T10:18:20.237Z,1008.81
2023-05-06T10:19:20.202Z,1008.81
2023-05-06T10:20:20.267Z,1008.81
2023-05-06T10:21:20.146Z,1008.80
2023-05-06T10:22:41.108Z,1008.76
2023-05-06T10:23:20.082Z,1008.77
2023-05-06T10:24:20.066Z,1008.73
2023-05-06T10:25:20.026Z,1008.77
2023-05-06T10:26:20.000Z,1008.77
2023-05-06T10:27:19.976Z,1008.74
2023-05-06T10:28:40.931Z,1008.73
2023-05-06T10:29:19.904Z,1008.67
2023-05-06T10:30:19.871Z,1008.67
2023-05-06T10:31:19.883Z,1008.66
2023-05-06T10:32:19.826Z,1008.69
2023-05-06T10:33:19.822Z,1008.71
2023-05-06T10:34:40.750Z,1008.74
2023-05-06T10:35:19.736Z,1008.73
2023-05-06T10:36:19.769Z,1008.72
2023-05-06T10:37:19.663Z,1008.69
2023-05-06T10:38:19.640Z,1008.71
2023-05-06T10:39:19.612Z,1008.72
2023-05-06T10:40:40.584Z,1008.72
2023-05-06T10:41:19.556Z,1008.70
2023-05-06T10:42:19.590Z,1008.66
2023-05-06T10:43:19.488Z,1008.66
2023-05-06T10:44:19.465Z,1008.63
2023-05-06T10:45:19.437Z,1008.67
2023-05-06T10:46:40.407Z,1008.61
2023-05-06T10:47:19.377Z,1008.62
2023-05-06T10:48:19.348Z,1008.57
2023-05-06T10:49:19.319Z,1008.60
2023-05-06T10:50:19.290Z,1008.60
2023-05-06T10:51:19.262Z,1008.61
2023-05-06T10:52:40.259Z,1008.56
2023-05-06T10:53:19.204Z,1008.59
2023-05-06T10:54:19.210Z,1008.58
2023-05-06T10:55:19.186Z,1008.59
2023-05-06T10:56:19.114Z,1008.59
2023-05-06T10:57:19.095Z,1008.58
2023-05-06T10:58:40.069Z,1008.53
2023-05-06T10:59:19.027Z,1008.48
2023-05-06T11:00:19.013Z,1008.49
2023-05-06T11:01:18.991Z,1008.47
2023-05-06T11:02:19.238Z,1008.50
2023-05-06T11:03:19.036Z,1008.53
2023-05-06T11:04:39.886Z,1008.50
2023-05-06T11:05:18.872Z,1008.48
2023-05-06T11:06:18.839Z,1008.48
2023-05-06T11:07:18.811Z,1008.44
2023-05-06T11:08:18.856Z,1008.47
2023-05-06T11:09:18.758Z,1008.47
2023-05-06T11:10:39.747Z,1008.44
2023-05-06T11:11:18.688Z,1008.43
2023-05-06T11:12:18.663Z,1008.43
2023-05-06T11:13:18.715Z,1008.40
2023-05-06T11:14:18.606Z,1008.42
2023-05-06T11:15:18.582Z,1008.41
2023-05-06T11:16:39.580Z,1008.36
2023-05-06T11:17:18.519Z,1008.40
2023-05-06T11:18:18.501Z,1008.34
2023-05-06T11:19:18.464Z,1008.30
2023-05-06T11:20:18.450Z,1008.31
2023-05-06T11:21:18.413Z,1008.31
2023-05-06T11:22:39.383Z,1008.32
2023-05-06T11:23:18.351Z,1008.28
2023-05-06T11:24:18.330Z,1008.31
2023-05-06T11:25:18.296Z,1008.30
2023-05-06T11:26:18.268Z,1008.28
2023-05-06T11:27:18.240Z,1008.25
2023-05-06T11:28:39.210Z,1008.25
2023-05-06T11:29:18.182Z,1008.28
2023-05-06T11:30:18.156Z,1008.22
2023-05-06T11:31:18.185Z,1008.20
2023-05-06T11:32:18.098Z,1008.16
2023-05-06T11:33:18.070Z,1008.18
2023-05-06T11:34:39.060Z,1008.19
2023-05-06T11:35:18.029Z,1008.19
2023-05-06T11:36:17.998Z,1008.14
2023-05-06T11:37:17.970Z,1008.18
2023-05-06T11:38:17.932Z,1008.16
2023-05-06T11:39:17.919Z,1008.18
2023-05-06T11:40:39.009Z,1008.18
2023-05-06T11:41:17.854Z,1008.12
2023-05-06T11:42:17.827Z,1008.14
2023-05-06T11:43:17.798Z,1008.15
2023-05-06T11:44:17.771Z,1008.13
2023-05-06T11:45:17.745Z,1008.21
2023-05-06T11:46:38.756Z,1008.15
2023-05-06T11:47:17.685Z,1008.19
2023-05-06T11:48:17.695Z,1008.15
2023-05-06T11:49:17.632Z,1008.17
2023-05-06T11:50:17.616Z,1008.21
2023-05-06T11:51:17.584Z,1008.18
2023-05-06T11:52:38.549Z,1008.17
2023-05-06T11:53:17.528Z,1008.17
2023-05-06T11:54:17.500Z,1008.20
2023-05-06T11:55:17.888Z,1008.18
2023-05-06T11:56:17.530Z,1008.21
2023-05-06T11:57:17.427Z,1008.12
2023-05-06T11:58:38.389Z,1008.14
2023-05-06T11:59:17.363Z,1008.19
2023-05-06T12:00:17.350Z,1008.15
2023-05-06T12:01:17.326Z,1008.16
2023-05-06T12:02:17.351Z,1008.17
2023-05-06T12:03:17.396Z,1008.17
2023-05-06T12:04:38.268Z,1008.18
2023-05-06T12:05:17.222Z,1008.18